sensor_id;sensor_type;location;lat;lon;timestamp;P1;durP1;ratioP1;P2;durP2;ratioP2
15905;SDS011;8051;50.820;4.884;2023-03-13T00:01:56;21.23;;;17.00;;
15905;SDS011;8051;50.820;4.884;2023-03-13T00:04:25;24.10;;;16.03;;
15905;SDS011;8051;50.820;4.884;2023-03-13T00:06:52;16.17;;;12.17;;
15905;SDS011;8051;50.820;4.884;2023-03-13T00:09:21;18.03;;;13.67;;
15905;SDS011;8051;50.820;4.884;2023-03-13T00:11:49;17.27;;;12.60;;
15905;SDS011;8051;50.820;4.884;2023-03-13T00:14:16;22.20;;;14.73;;
15905;SDS011;8051;50.820;4.884;2023-03-13T00:16:43;15.57;;;13.97;;
15905;SDS011;8051;50.820;4.884;2023-03-13T00:19:11;22.50;;;14.93;;
15905;SDS011;8051;50.820;4.884;2023-03-13T00:21:38;20.27;;;12.03;;
15905;SDS011;8051;50.820;4.884;2023-03-13T00:24:07;19.90;;;12.30;;
15905;SDS011;8051;50.820;4.884;2023-03-13T00:26:37;15.20;;;10.23;;
15905;SDS011;8051;50.820;4.884;2023-03-13T00:29:05;15.83;;;10.10;;
15905;SDS011;8051;50.820;4.884;2023-03-13T00:31:32;20.67;;;10.93;;
15905;SDS011;8051;50.820;4.884;2023-03-13T00:34:00;15.57;;;10.40;;
15905;SDS011;8051;50.820;4.884;2023-03-13T00:36:30;19.07;;;11.70;;
15905;SDS011;8051;50.820;4.884;2023-03-13T00:38:58;13.33;;;11.67;;
15905;SDS011;8051;50.820;4.884;2023-03-13T00:41:27;15.73;;;10.87;;
15905;SDS011;8051;50.820;4.884;2023-03-13T00:43:57;12.97;;;10.27;;
15905;SDS011;8051;50.820;4.884;2023-03-13T00:46:25;21.20;;;11.80;;
15905;SDS011;8051;50.820;4.884;2023-03-13T00:48:54;15.00;;;11.00;;
15905;SDS011;8051;50.820;4.884;2023-03-13T00:51:23;14.77;;;11.60;;
15905;SDS011;8051;50.820;4.884;2023-03-13T00:53:51;13.33;;;10.50;;
15905;SDS011;8051;50.820;4.884;2023-03-13T00:56:19;15.60;;;10.40;;
15905;SDS011;8051;50.820;4.884;2023-03-13T00:58:47;16.97;;;10.63;;
15905;SDS011;8051;50.820;4.884;2023-03-13T01:01:18;16.27;;;9.90;;
15905;SDS011;8051;50.820;4.884;2023-03-13T01:03:47;12.53;;;9.77;;
15905;SDS011;8051;50.820;4.884;2023-03-13T01:06:17;13.83;;;9.27;;
15905;SDS011;8051;50.820;4.884;2023-03-13T01:08:46;11.83;;;9.40;;
15905;SDS011;8051;50.820;4.884;2023-03-13T01:11:14;13.27;;;8.77;;
15905;SDS011;8051;50.820;4.884;2023-03-13T01:13:42;15.93;;;8.73;;
15905;SDS011;8051;50.820;4.884;2023-03-13T01:16:11;10.23;;;8.83;;
15905;SDS011;8051;50.820;4.884;2023-03-13T01:18:42;12.50;;;10.07;;
15905;SDS011;8051;50.820;4.884;2023-03-13T01:21:10;10.87;;;9.77;;
15905;SDS011;8051;50.820;4.884;2023-03-13T01:23:39;10.67;;;9.70;;
15905;SDS011;8051;50.820;4.884;2023-03-13T01:26:07;10.80;;;9.77;;
15905;SDS011;8051;50.820;4.884;2023-03-13T01:28:35;10.10;;;9.20;;
15905;SDS011;8051;50.820;4.884;2023-03-13T01:31:09;11.27;;;8.03;;
15905;SDS011;8051;50.820;4.884;2023-03-13T01:33:37;7.33;;;6.57;;
15905;SDS011;8051;50.820;4.884;2023-03-13T01:36:07;9.30;;;7.27;;
15905;SDS011;8051;50.820;4.884;2023-03-13T01:38:35;9.57;;;6.73;;
15905;SDS011;8051;50.820;4.884;2023-03-13T01:41:03;8.67;;;7.73;;
15905;SDS011;8051;50.820;4.884;2023-03-13T01:43:32;9.07;;;8.33;;
15905;SDS011;8051;50.820;4.884;2023-03-13T01:46:04;12.97;;;8.97;;
15905;SDS011;8051;50.820;4.884;2023-03-13T01:48:40;12.80;;;9.50;;
15905;SDS011;8051;50.820;4.884;2023-03-13T01:51:15;11.40;;;9.13;;
15905;SDS011;8051;50.820;4.884;2023-03-13T01:53:47;10.40;;;9.40;;
15905;SDS011;8051;50.820;4.884;2023-03-13T01:56:19;10.43;;;8.93;;
15905;SDS011;8051;50.820;4.884;2023-03-13T01:58:53;9.77;;;8.97;;
15905;SDS011;8051;50.820;4.884;2023-03-13T02:01:23;12.17;;;9.33;;
15905;SDS011;8051;50.820;4.884;2023-03-13T02:03:51;11.27;;;10.07;;
15905;SDS011;8051;50.820;4.884;2023-03-13T02:06:20;13.33;;;10.40;;
15905;SDS011;8051;50.820;4.884;2023-03-13T02:08:49;11.13;;;9.97;;
15905;SDS011;8051;50.820;4.884;2023-03-13T02:11:21;10.97;;;9.33;;
15905;SDS011;8051;50.820;4.884;2023-03-13T02:13:53;11.00;;;9.97;;
15905;SDS011;8051;50.820;4.884;2023-03-13T02:16:22;12.87;;;10.13;;
15905;SDS011;8051;50.820;4.884;2023-03-13T02:18:50;11.90;;;10.70;;
15905;SDS011;8051;50.820;4.884;2023-03-13T02:21:22;13.00;;;10.53;;
15905;SDS011;8051;50.820;4.884;2023-03-13T02:24:01;12.10;;;10.93;;
15905;SDS011;8051;50.820;4.884;2023-03-13T02:26:35;11.33;;;10.07;;
15905;SDS011;8051;50.820;4.884;2023-03-13T02:29:02;11.10;;;8.80;;
15905;SDS011;8051;50.820;4.884;2023-03-13T02:31:30;10.50;;;9.50;;
15905;SDS011;8051;50.820;4.884;2023-03-13T02:33:58;10.63;;;9.17;;
15905;SDS011;8051;50.820;4.884;2023-03-13T02:36:27;10.30;;;9.20;;
15905;SDS011;8051;50.820;4.884;2023-03-13T02:38:58;10.13;;;9.23;;
15905;SDS011;8051;50.820;4.884;2023-03-13T02:41:31;13.13;;;9.70;;
15905;SDS011;8051;50.820;4.884;2023-03-13T02:44:01;10.40;;;9.50;;
15905;SDS011;8051;50.820;4.884;2023-03-13T02:46:30;10.83;;;9.73;;
15905;SDS011;8051;50.820;4.884;2023-03-13T02:49:16;11.40;;;10.30;;
15905;SDS011;8051;50.820;4.884;2023-03-13T02:51:46;10.47;;;9.33;;
15905;SDS011;8051;50.820;4.884;2023-03-13T02:54:16;11.20;;;9.20;;
15905;SDS011;8051;50.820;4.884;2023-03-13T02:56:47;10.70;;;9.63;;
15905;SDS011;8051;50.820;4.884;2023-03-13T02:59:18;13.93;;;10.47;;
15905;SDS011;8051;50.820;4.884;2023-03-13T03:01:46;11.67;;;10.60;;
15905;SDS011;8051;50.820;4.884;2023-03-13T03:04:16;11.13;;;10.10;;
15905;SDS011;8051;50.820;4.884;2023-03-13T03:06:44;11.07;;;10.07;;
15905;SDS011;8051;50.820;4.884;2023-03-13T03:09:11;11.10;;;10.10;;
15905;SDS011;8051;50.820;4.884;2023-03-13T03:11:39;12.50;;;10.93;;
15905;SDS011;8051;50.820;4.884;2023-03-13T03:14:06;11.60;;;10.70;;
15905;SDS011;8051;50.820;4.884;2023-03-13T03:16:35;10.90;;;10.07;;
15905;SDS011;8051;50.820;4.884;2023-03-13T03:19:03;12.37;;;11.33;;
15905;SDS011;8051;50.820;4.884;2023-03-13T03:21:31;15.00;;;11.83;;
15905;SDS011;8051;50.820;4.884;2023-03-13T03:23:59;11.70;;;10.80;;
15905;SDS011;8051;50.820;4.884;2023-03-13T03:26:26;12.73;;;11.67;;
15905;SDS011;8051;50.820;4.884;2023-03-13T03:28:54;12.93;;;11.93;;
15905;SDS011;8051;50.820;4.884;2023-03-13T03:31:21;13.40;;;12.13;;
15905;SDS011;8051;50.820;4.884;2023-03-13T03:33:50;12.63;;;11.67;;
15905;SDS011;8051;50.820;4.884;2023-03-13T03:36:19;14.47;;;13.37;;
15905;SDS011;8051;50.820;4.884;2023-03-13T03:38:48;13.70;;;12.60;;
15905;SDS011;8051;50.820;4.884;2023-03-13T03:41:16;14.07;;;12.73;;
15905;SDS011;8051;50.820;4.884;2023-03-13T03:43:44;12.30;;;11.30;;
15905;SDS011;8051;50.820;4.884;2023-03-13T03:46:13;12.47;;;11.50;;
15905;SDS011;8051;50.820;4.884;2023-03-13T03:48:41;11.63;;;10.70;;
15905;SDS011;8051;50.820;4.884;2023-03-13T03:51:10;12.40;;;11.33;;
15905;SDS011;8051;50.820;4.884;2023-03-13T03:53:38;10.63;;;9.93;;
15905;SDS011;8051;50.820;4.884;2023-03-13T03:56:06;13.57;;;12.37;;
15905;SDS011;8051;50.820;4.884;2023-03-13T03:58:35;13.27;;;12.17;;
15905;SDS011;8051;50.820;4.884;2023-03-13T04:01:02;12.70;;;11.80;;
15905;SDS011;8051;50.820;4.884;2023-03-13T04:03:30;13.07;;;12.10;;
15905;SDS011;8051;50.820;4.884;2023-03-13T04:05:58;14.13;;;13.27;;
15905;SDS011;8051;50.820;4.884;2023-03-13T04:08:27;14.67;;;13.67;;
15905;SDS011;8051;50.820;4.884;2023-03-13T04:10:54;14.80;;;13.50;;
15905;SDS011;8051;50.820;4.884;2023-03-13T04:13:22;15.77;;;14.53;;
15905;SDS011;8051;50.820;4.884;2023-03-13T04:15:49;15.17;;;14.17;;
15905;SDS011;8051;50.820;4.884;2023-03-13T04:18:17;14.30;;;13.40;;
15905;SDS011;8051;50.820;4.884;2023-03-13T04:20:45;15.20;;;14.10;;
15905;SDS011;8051;50.820;4.884;2023-03-13T04:23:12;15.10;;;14.10;;
15905;SDS011;8051;50.820;4.884;2023-03-13T04:25:41;14.17;;;13.30;;
15905;SDS011;8051;50.820;4.884;2023-03-13T04:28:08;15.17;;;14.17;;
15905;SDS011;8051;50.820;4.884;2023-03-13T04:30:36;14.07;;;13.37;;
15905;SDS011;8051;50.820;4.884;2023-03-13T04:33:03;13.50;;;12.80;;
15905;SDS011;8051;50.820;4.884;2023-03-13T04:35:31;14.10;;;13.00;;
15905;SDS011;8051;50.820;4.884;2023-03-13T04:37:58;14.63;;;13.63;;
15905;SDS011;8051;50.820;4.884;2023-03-13T04:40:26;14.00;;;13.20;;
15905;SDS011;8051;50.820;4.884;2023-03-13T04:42:55;15.50;;;14.30;;
15905;SDS011;8051;50.820;4.884;2023-03-13T04:45:23;14.60;;;13.50;;
15905;SDS011;8051;50.820;4.884;2023-03-13T04:47:50;13.47;;;12.57;;
15905;SDS011;8051;50.820;4.884;2023-03-13T04:50:18;14.40;;;13.40;;
15905;SDS011;8051;50.820;4.884;2023-03-13T04:52:45;15.27;;;14.30;;
15905;SDS011;8051;50.820;4.884;2023-03-13T04:55:13;15.73;;;14.73;;
15905;SDS011;8051;50.820;4.884;2023-03-13T04:57:40;15.10;;;14.20;;
15905;SDS011;8051;50.820;4.884;2023-03-13T05:00:10;16.60;;;15.53;;
15905;SDS011;8051;50.820;4.884;2023-03-13T05:02:38;15.00;;;14.10;;
15905;SDS011;8051;50.820;4.884;2023-03-13T05:05:05;16.80;;;15.60;;
15905;SDS011;8051;50.820;4.884;2023-03-13T05:07:33;15.33;;;14.03;;
15905;SDS011;8051;50.820;4.884;2023-03-13T05:10:00;15.53;;;14.60;;
15905;SDS011;8051;50.820;4.884;2023-03-13T05:12:28;16.53;;;15.53;;
15905;SDS011;8051;50.820;4.884;2023-03-13T05:14:55;16.57;;;15.60;;
15905;SDS011;8051;50.820;4.884;2023-03-13T05:17:24;15.43;;;14.43;;
15905;SDS011;8051;50.820;4.884;2023-03-13T05:19:52;15.47;;;14.30;;
15905;SDS011;8051;50.820;4.884;2023-03-13T05:22:19;16.10;;;14.87;;
15905;SDS011;8051;50.820;4.884;2023-03-13T05:24:46;18.10;;;16.70;;
15905;SDS011;8051;50.820;4.884;2023-03-13T05:27:14;17.13;;;15.93;;
15905;SDS011;8051;50.820;4.884;2023-03-13T05:29:41;16.70;;;15.70;;
15905;SDS011;8051;50.820;4.884;2023-03-13T05:32:09;17.93;;;16.70;;
15905;SDS011;8051;50.820;4.884;2023-03-13T05:34:37;17.07;;;15.90;;
15905;SDS011;8051;50.820;4.884;2023-03-13T05:37:05;16.10;;;14.47;;
15905;SDS011;8051;50.820;4.884;2023-03-13T05:39:32;17.77;;;16.33;;
15905;SDS011;8051;50.820;4.884;2023-03-13T05:41:59;16.97;;;15.70;;
15905;SDS011;8051;50.820;4.884;2023-03-13T05:44:27;16.93;;;15.53;;
15905;SDS011;8051;50.820;4.884;2023-03-13T05:46:54;16.70;;;15.57;;
15905;SDS011;8051;50.820;4.884;2023-03-13T05:49:22;16.80;;;15.57;;
15905;SDS011;8051;50.820;4.884;2023-03-13T05:51:51;16.77;;;15.40;;
15905;SDS011;8051;50.820;4.884;2023-03-13T05:54:18;17.97;;;16.10;;
15905;SDS011;8051;50.820;4.884;2023-03-13T05:56:46;18.70;;;17.20;;
15905;SDS011;8051;50.820;4.884;2023-03-13T05:59:14;17.47;;;15.97;;
15905;SDS011;8051;50.820;4.884;2023-03-13T06:01:42;17.07;;;15.87;;
15905;SDS011;8051;50.820;4.884;2023-03-13T06:04:09;17.70;;;16.20;;
15905;SDS011;8051;50.820;4.884;2023-03-13T06:06:38;18.00;;;16.60;;
15905;SDS011;8051;50.820;4.884;2023-03-13T06:09:07;19.00;;;17.37;;
15905;SDS011;8051;50.820;4.884;2023-03-13T06:11:36;18.40;;;16.97;;
15905;SDS011;8051;50.820;4.884;2023-03-13T06:14:04;17.50;;;16.17;;
15905;SDS011;8051;50.820;4.884;2023-03-13T06:16:31;18.47;;;17.10;;
15905;SDS011;8051;50.820;4.884;2023-03-13T06:18:59;18.27;;;16.93;;
15905;SDS011;8051;50.820;4.884;2023-03-13T06:21:26;18.23;;;16.90;;
15905;SDS011;8051;50.820;4.884;2023-03-13T06:23:54;17.97;;;16.43;;
15905;SDS011;8051;50.820;4.884;2023-03-13T06:26:23;17.87;;;16.37;;
15905;SDS011;8051;50.820;4.884;2023-03-13T06:28:51;18.17;;;16.53;;
15905;SDS011;8051;50.820;4.884;2023-03-13T06:31:18;18.20;;;16.70;;
15905;SDS011;8051;50.820;4.884;2023-03-13T06:33:46;17.53;;;16.30;;
15905;SDS011;8051;50.820;4.884;2023-03-13T06:36:13;18.00;;;16.60;;
15905;SDS011;8051;50.820;4.884;2023-03-13T06:38:41;18.67;;;17.43;;
15905;SDS011;8051;50.820;4.884;2023-03-13T06:41:08;17.77;;;16.57;;
15905;SDS011;8051;50.820;4.884;2023-03-13T06:43:37;19.50;;;17.93;;
15905;SDS011;8051;50.820;4.884;2023-03-13T06:46:05;18.63;;;17.17;;
15905;SDS011;8051;50.820;4.884;2023-03-13T06:48:33;20.67;;;18.70;;
15905;SDS011;8051;50.820;4.884;2023-03-13T06:51:00;19.43;;;17.93;;
15905;SDS011;8051;50.820;4.884;2023-03-13T06:53:28;18.57;;;17.27;;
15905;SDS011;8051;50.820;4.884;2023-03-13T06:55:59;19.33;;;17.83;;
15905;SDS011;8051;50.820;4.884;2023-03-13T06:58:27;19.23;;;17.33;;
15905;SDS011;8051;50.820;4.884;2023-03-13T07:00:56;20.50;;;18.77;;
15905;SDS011;8051;50.820;4.884;2023-03-13T07:03:23;19.70;;;17.90;;
15905;SDS011;8051;50.820;4.884;2023-03-13T07:05:54;18.97;;;17.27;;
15905;SDS011;8051;50.820;4.884;2023-03-13T07:08:22;20.83;;;19.00;;
15905;SDS011;8051;50.820;4.884;2023-03-13T07:10:50;21.33;;;19.40;;
15905;SDS011;8051;50.820;4.884;2023-03-13T07:13:18;21.37;;;19.33;;
15905;SDS011;8051;50.820;4.884;2023-03-13T07:15:46;19.60;;;18.20;;
15905;SDS011;8051;50.820;4.884;2023-03-13T07:18:15;19.50;;;17.97;;
15905;SDS011;8051;50.820;4.884;2023-03-13T07:20:43;18.23;;;17.13;;
15905;SDS011;8051;50.820;4.884;2023-03-13T07:23:10;19.33;;;17.80;;
15905;SDS011;8051;50.820;4.884;2023-03-13T07:25:38;20.30;;;18.67;;
15905;SDS011;8051;50.820;4.884;2023-03-13T07:28:05;20.27;;;18.63;;
15905;SDS011;8051;50.820;4.884;2023-03-13T07:30:32;19.40;;;18.00;;
15905;SDS011;8051;50.820;4.884;2023-03-13T07:33:00;18.73;;;17.50;;
15905;SDS011;8051;50.820;4.884;2023-03-13T07:35:29;19.27;;;17.57;;
15905;SDS011;8051;50.820;4.884;2023-03-13T07:37:56;20.37;;;18.77;;
15905;SDS011;8051;50.820;4.884;2023-03-13T07:40:24;21.23;;;19.20;;
15905;SDS011;8051;50.820;4.884;2023-03-13T07:42:51;20.57;;;19.07;;
15905;SDS011;8051;50.820;4.884;2023-03-13T07:45:19;20.63;;;18.83;;
15905;SDS011;8051;50.820;4.884;2023-03-13T07:47:46;21.00;;;19.30;;
15905;SDS011;8051;50.820;4.884;2023-03-13T07:50:14;19.07;;;17.87;;
15905;SDS011;8051;50.820;4.884;2023-03-13T07:52:43;20.67;;;18.77;;
15905;SDS011;8051;50.820;4.884;2023-03-13T07:55:11;19.77;;;18.40;;
15905;SDS011;8051;50.820;4.884;2023-03-13T07:57:38;19.90;;;18.40;;
15905;SDS011;8051;50.820;4.884;2023-03-13T08:00:06;21.03;;;19.73;;
15905;SDS011;8051;50.820;4.884;2023-03-13T08:02:40;21.60;;;19.97;;
15905;SDS011;8051;50.820;4.884;2023-03-13T08:05:08;19.97;;;18.40;;
15905;SDS011;8051;50.820;4.884;2023-03-13T08:07:35;20.37;;;19.07;;
15905;SDS011;8051;50.820;4.884;2023-03-13T08:10:04;20.17;;;18.77;;
15905;SDS011;8051;50.820;4.884;2023-03-13T08:12:32;20.60;;;18.90;;
15905;SDS011;8051;50.820;4.884;2023-03-13T08:15:00;21.40;;;19.83;;
15905;SDS011;8051;50.820;4.884;2023-03-13T08:17:28;20.63;;;18.80;;
15905;SDS011;8051;50.820;4.884;2023-03-13T08:19:55;20.33;;;18.80;;
15905;SDS011;8051;50.820;4.884;2023-03-13T08:22:23;19.77;;;18.37;;
15905;SDS011;8051;50.820;4.884;2023-03-13T08:24:50;23.37;;;21.70;;
15905;SDS011;8051;50.820;4.884;2023-03-13T08:27:19;21.70;;;20.07;;
15905;SDS011;8051;50.820;4.884;2023-03-13T08:29:47;19.50;;;18.30;;
15905;SDS011;8051;50.820;4.884;2023-03-13T08:32:14;20.17;;;18.70;;
15905;SDS011;8051;50.820;4.884;2023-03-13T08:34:42;18.80;;;17.70;;
15905;SDS011;8051;50.820;4.884;2023-03-13T08:37:13;18.70;;;17.33;;
15905;SDS011;8051;50.820;4.884;2023-03-13T08:39:41;18.23;;;16.93;;
15905;SDS011;8051;50.820;4.884;2023-03-13T08:42:10;19.53;;;18.23;;
15905;SDS011;8051;50.820;4.884;2023-03-13T08:44:40;18.77;;;17.53;;
15905;SDS011;8051;50.820;4.884;2023-03-13T08:47:07;18.97;;;17.57;;
15905;SDS011;8051;50.820;4.884;2023-03-13T08:49:35;20.53;;;19.10;;
15905;SDS011;8051;50.820;4.884;2023-03-13T08:52:02;19.00;;;17.50;;
15905;SDS011;8051;50.820;4.884;2023-03-13T08:54:30;18.77;;;17.77;;
15905;SDS011;8051;50.820;4.884;2023-03-13T08:56:58;21.07;;;19.47;;
15905;SDS011;8051;50.820;4.884;2023-03-13T08:59:26;20.67;;;19.13;;
15905;SDS011;8051;50.820;4.884;2023-03-13T09:01:55;19.17;;;17.73;;
15905;SDS011;8051;50.820;4.884;2023-03-13T09:04:22;20.27;;;18.97;;
15905;SDS011;8051;50.820;4.884;2023-03-13T09:06:50;19.77;;;18.53;;
15905;SDS011;8051;50.820;4.884;2023-03-13T09:09:17;19.63;;;18.17;;
15905;SDS011;8051;50.820;4.884;2023-03-13T09:11:45;19.47;;;18.37;;
15905;SDS011;8051;50.820;4.884;2023-03-13T09:14:12;19.17;;;17.87;;
15905;SDS011;8051;50.820;4.884;2023-03-13T09:16:40;18.70;;;17.60;;
15905;SDS011;8051;50.820;4.884;2023-03-13T09:19:10;18.50;;;17.30;;
15905;SDS011;8051;50.820;4.884;2023-03-13T09:21:38;20.40;;;18.67;;
15905;SDS011;8051;50.820;4.884;2023-03-13T09:24:06;20.87;;;19.37;;
15905;SDS011;8051;50.820;4.884;2023-03-13T09:26:33;20.30;;;19.00;;
15905;SDS011;8051;50.820;4.884;2023-03-13T09:29:01;20.30;;;19.00;;
15905;SDS011;8051;50.820;4.884;2023-03-13T09:31:29;20.20;;;18.70;;
15905;SDS011;8051;50.820;4.884;2023-03-13T09:33:58;19.37;;;18.23;;
15905;SDS011;8051;50.820;4.884;2023-03-13T09:36:27;21.23;;;19.63;;
15905;SDS011;8051;50.820;4.884;2023-03-13T09:38:55;20.17;;;18.87;;
15905;SDS011;8051;50.820;4.884;2023-03-13T09:41:24;18.53;;;17.40;;
15905;SDS011;8051;50.820;4.884;2023-03-13T09:43:57;20.40;;;19.10;;
15905;SDS011;8051;50.820;4.884;2023-03-13T09:46:30;19.67;;;18.43;;
15905;SDS011;8051;50.820;4.884;2023-03-13T09:49:04;19.83;;;18.53;;
15905;SDS011;8051;50.820;4.884;2023-03-13T09:51:41;20.97;;;19.53;;
15905;SDS011;8051;50.820;4.884;2023-03-13T09:54:17;20.67;;;19.17;;
15905;SDS011;8051;50.820;4.884;2023-03-13T09:56:51;19.57;;;18.37;;
15905;SDS011;8051;50.820;4.884;2023-03-13T09:59:23;18.77;;;17.57;;
15905;SDS011;8051;50.820;4.884;2023-03-13T10:01:56;18.90;;;17.80;;
15905;SDS011;8051;50.820;4.884;2023-03-13T10:04:30;19.70;;;18.50;;
15905;SDS011;8051;50.820;4.884;2023-03-13T10:07:07;18.47;;;17.23;;
15905;SDS011;8051;50.820;4.884;2023-03-13T10:09:36;19.43;;;18.27;;
15905;SDS011;8051;50.820;4.884;2023-03-13T10:12:06;19.93;;;18.63;;
15905;SDS011;8051;50.820;4.884;2023-03-13T10:14:42;17.97;;;16.90;;
15905;SDS011;8051;50.820;4.884;2023-03-13T10:17:14;17.93;;;16.87;;
15905;SDS011;8051;50.820;4.884;2023-03-13T10:19:52;19.00;;;17.80;;
15905;SDS011;8051;50.820;4.884;2023-03-13T10:22:25;19.10;;;18.00;;
15905;SDS011;8051;50.820;4.884;2023-03-13T10:24:55;19.90;;;18.80;;
15905;SDS011;8051;50.820;4.884;2023-03-13T10:27:25;19.60;;;18.47;;
15905;SDS011;8051;50.820;4.884;2023-03-13T10:29:53;20.00;;;18.47;;
15905;SDS011;8051;50.820;4.884;2023-03-13T10:32:20;17.60;;;16.50;;
15905;SDS011;8051;50.820;4.884;2023-03-13T10:34:49;18.40;;;17.40;;
15905;SDS011;8051;50.820;4.884;2023-03-13T10:37:20;19.70;;;18.50;;
15905;SDS011;8051;50.820;4.884;2023-03-13T10:39:51;19.80;;;18.50;;
15905;SDS011;8051;50.820;4.884;2023-03-13T10:42:25;18.33;;;17.23;;
15905;SDS011;8051;50.820;4.884;2023-03-13T10:44:57;19.30;;;18.20;;
15905;SDS011;8051;50.820;4.884;2023-03-13T10:47:26;19.93;;;18.83;;
15905;SDS011;8051;50.820;4.884;2023-03-13T10:49:58;19.10;;;18.00;;
15905;SDS011;8051;50.820;4.884;2023-03-13T10:52:28;19.67;;;18.57;;
15905;SDS011;8051;50.820;4.884;2023-03-13T10:55:03;18.57;;;17.57;;
15905;SDS011;8051;50.820;4.884;2023-03-13T10:57:32;21.93;;;20.27;;
15905;SDS011;8051;50.820;4.884;2023-03-13T11:00:03;18.93;;;17.83;;
15905;SDS011;8051;50.820;4.884;2023-03-13T11:02:49;18.40;;;17.20;;
15905;SDS011;8051;50.820;4.884;2023-03-13T11:05:28;17.93;;;16.93;;
15905;SDS011;8051;50.820;4.884;2023-03-13T11:08:18;17.23;;;16.23;;
15905;SDS011;8051;50.820;4.884;2023-03-13T11:10:56;19.50;;;18.27;;
15905;SDS011;8051;50.820;4.884;2023-03-13T11:13:28;17.80;;;16.90;;
15905;SDS011;8051;50.820;4.884;2023-03-13T11:16:12;17.53;;;16.53;;
15905;SDS011;8051;50.820;4.884;2023-03-13T11:18:49;18.00;;;17.00;;
15905;SDS011;8051;50.820;4.884;2023-03-13T11:21:37;16.03;;;15.23;;
15905;SDS011;8051;50.820;4.884;2023-03-13T11:24:14;16.87;;;15.97;;
15905;SDS011;8051;50.820;4.884;2023-03-13T11:26:52;17.57;;;16.67;;
15905;SDS011;8051;50.820;4.884;2023-03-13T11:29:27;16.83;;;15.93;;
15905;SDS011;8051;50.820;4.884;2023-03-13T11:32:06;17.33;;;16.43;;
15905;SDS011;8051;50.820;4.884;2023-03-13T11:34:46;17.20;;;16.20;;
15905;SDS011;8051;50.820;4.884;2023-03-13T11:37:17;15.93;;;15.03;;
15905;SDS011;8051;50.820;4.884;2023-03-13T11:39:49;16.83;;;16.00;;
15905;SDS011;8051;50.820;4.884;2023-03-13T11:42:30;17.37;;;16.37;;
15905;SDS011;8051;50.820;4.884;2023-03-13T11:45:22;15.90;;;15.20;;
15905;SDS011;8051;50.820;4.884;2023-03-13T11:48:03;16.93;;;15.90;;
15905;SDS011;8051;50.820;4.884;2023-03-13T11:50:36;15.93;;;15.13;;
15905;SDS011;8051;50.820;4.884;2023-03-13T11:53:23;15.90;;;15.20;;
15905;SDS011;8051;50.820;4.884;2023-03-13T11:56:04;16.27;;;15.47;;
15905;SDS011;8051;50.820;4.884;2023-03-13T11:58:40;16.90;;;16.00;;
15905;SDS011;8051;50.820;4.884;2023-03-13T12:01:39;17.33;;;16.33;;
15905;SDS011;8051;50.820;4.884;2023-03-13T12:04:13;17.83;;;16.53;;
15905;SDS011;8051;50.820;4.884;2023-03-13T12:06:48;16.27;;;15.40;;
15905;SDS011;8051;50.820;4.884;2023-03-13T12:09:19;17.43;;;16.53;;
15905;SDS011;8051;50.820;4.884;2023-03-13T12:11:56;17.97;;;16.80;;
15905;SDS011;8051;50.820;4.884;2023-03-13T12:14:30;17.80;;;16.60;;
15905;SDS011;8051;50.820;4.884;2023-03-13T12:17:02;17.20;;;16.17;;
15905;SDS011;8051;50.820;4.884;2023-03-13T12:19:31;17.30;;;16.20;;
15905;SDS011;8051;50.820;4.884;2023-03-13T12:22:07;15.97;;;15.07;;
15905;SDS011;8051;50.820;4.884;2023-03-13T12:24:44;16.67;;;15.80;;
15905;SDS011;8051;50.820;4.884;2023-03-13T12:27:17;17.17;;;16.17;;
15905;SDS011;8051;50.820;4.884;2023-03-13T12:29:58;16.93;;;15.77;;
15905;SDS011;8051;50.820;4.884;2023-03-13T12:32:33;17.30;;;16.20;;
15905;SDS011;8051;50.820;4.884;2023-03-13T12:35:06;16.60;;;15.73;;
15905;SDS011;8051;50.820;4.884;2023-03-13T12:37:44;15.93;;;15.03;;
15905;SDS011;8051;50.820;4.884;2023-03-13T12:40:18;17.17;;;16.23;;
15905;SDS011;8051;50.820;4.884;2023-03-13T12:42:54;17.10;;;16.20;;
15905;SDS011;8051;50.820;4.884;2023-03-13T12:45:25;17.67;;;16.67;;
15905;SDS011;8051;50.820;4.884;2023-03-13T12:51:06;18.63;;;17.53;;
15905;SDS011;8051;50.820;4.884;2023-03-13T12:57:04;18.47;;;17.57;;
15905;SDS011;8051;50.820;4.884;2023-03-13T12:59:42;19.10;;;18.00;;
15905;SDS011;8051;50.820;4.884;2023-03-13T13:02:15;17.23;;;16.30;;
15905;SDS011;8051;50.820;4.884;2023-03-13T13:04:46;16.50;;;15.50;;
15905;SDS011;8051;50.820;4.884;2023-03-13T13:07:19;17.97;;;17.03;;
15905;SDS011;8051;50.820;4.884;2023-03-13T13:10:01;19.93;;;18.83;;
15905;SDS011;8051;50.820;4.884;2023-03-13T13:12:41;18.33;;;17.17;;
15905;SDS011;8051;50.820;4.884;2023-03-13T13:15:13;18.30;;;17.20;;
15905;SDS011;8051;50.820;4.884;2023-03-13T13:17:48;17.40;;;16.50;;
15905;SDS011;8051;50.820;4.884;2023-03-13T13:20:39;16.10;;;15.10;;
15905;SDS011;8051;50.820;4.884;2023-03-13T13:32:06;16.03;;;15.03;;
15905;SDS011;8051;50.820;4.884;2023-03-13T13:34:54;16.40;;;15.27;;
15905;SDS011;8051;50.820;4.884;2023-03-13T13:37:26;17.00;;;15.83;;
15905;SDS011;8051;50.820;4.884;2023-03-13T13:42:50;17.73;;;16.60;;
15905;SDS011;8051;50.820;4.884;2023-03-13T13:45:20;16.50;;;15.60;;
15905;SDS011;8051;50.820;4.884;2023-03-13T13:48:14;17.00;;;16.10;;
15905;SDS011;8051;50.820;4.884;2023-03-13T13:53:59;17.17;;;16.07;;
15905;SDS011;8051;50.820;4.884;2023-03-13T13:59:25;17.90;;;16.80;;
15905;SDS011;8051;50.820;4.884;2023-03-13T14:02:10;17.37;;;16.47;;
15905;SDS011;8051;50.820;4.884;2023-03-13T14:04:47;19.27;;;18.13;;
15905;SDS011;8051;50.820;4.884;2023-03-13T14:07:23;18.23;;;17.13;;
15905;SDS011;8051;50.820;4.884;2023-03-13T14:10:03;17.07;;;16.07;;
15905;SDS011;8051;50.820;4.884;2023-03-13T14:12:38;17.37;;;16.33;;
15905;SDS011;8051;50.820;4.884;2023-03-13T14:15:11;18.43;;;17.10;;
15905;SDS011;8051;50.820;4.884;2023-03-13T14:17:41;18.17;;;17.07;;
15905;SDS011;8051;50.820;4.884;2023-03-13T14:20:18;17.83;;;16.83;;
15905;SDS011;8051;50.820;4.884;2023-03-13T14:22:54;19.10;;;17.70;;
15905;SDS011;8051;50.820;4.884;2023-03-13T14:25:23;19.17;;;17.87;;
15905;SDS011;8051;50.820;4.884;2023-03-13T14:27:52;17.30;;;16.20;;
15905;SDS011;8051;50.820;4.884;2023-03-13T14:30:21;17.83;;;16.73;;
15905;SDS011;8051;50.820;4.884;2023-03-13T14:32:49;17.00;;;15.87;;
15905;SDS011;8051;50.820;4.884;2023-03-13T14:35:18;17.73;;;16.53;;
15905;SDS011;8051;50.820;4.884;2023-03-13T14:37:48;18.67;;;17.50;;
15905;SDS011;8051;50.820;4.884;2023-03-13T14:40:23;18.80;;;17.53;;
15905;SDS011;8051;50.820;4.884;2023-03-13T14:42:52;17.77;;;16.77;;
15905;SDS011;8051;50.820;4.884;2023-03-13T14:45:23;17.00;;;15.90;;
15905;SDS011;8051;50.820;4.884;2023-03-13T14:47:53;19.20;;;18.00;;
15905;SDS011;8051;50.820;4.884;2023-03-13T14:50:22;17.03;;;15.90;;
15905;SDS011;8051;50.820;4.884;2023-03-13T14:52:51;17.13;;;16.23;;
15905;SDS011;8051;50.820;4.884;2023-03-13T14:55:27;18.40;;;17.00;;
15905;SDS011;8051;50.820;4.884;2023-03-13T14:57:57;17.13;;;16.13;;
15905;SDS011;8051;50.820;4.884;2023-03-13T15:00:34;17.80;;;16.60;;
15905;SDS011;8051;50.820;4.884;2023-03-13T15:03:20;18.20;;;17.13;;
15905;SDS011;8051;50.820;4.884;2023-03-13T15:06:00;18.60;;;17.40;;
15905;SDS011;8051;50.820;4.884;2023-03-13T15:08:39;17.87;;;16.57;;
15905;SDS011;8051;50.820;4.884;2023-03-13T15:11:18;19.13;;;17.93;;
15905;SDS011;8051;50.820;4.884;2023-03-13T15:13:47;17.40;;;16.10;;
15905;SDS011;8051;50.820;4.884;2023-03-13T15:16:15;17.53;;;16.27;;
15905;SDS011;8051;50.820;4.884;2023-03-13T15:18:44;16.43;;;15.43;;
15905;SDS011;8051;50.820;4.884;2023-03-13T15:21:22;17.10;;;16.00;;